createdAt,value
2018-06-27T00:00:03.523Z,10.00
2018-06-27T00:01:39.489Z,8.60
2018-06-27T00:03:18.684Z,18.00
2018-06-27T00:04:54.550Z,13.80
2018-06-27T00:06:30.381Z,16.80
2018-06-27T00:08:08.447Z,14.80
2018-06-27T00:09:43.893Z,13.00
2018-06-27T00:11:20.399Z,10.80
2018-06-27T00:12:56.744Z,11.60
2018-06-27T00:14:32.032Z,11.20
2018-06-27T00:16:08.279Z,12.40
2018-06-27T00:17:44.322Z,9.00
2018-06-27T00:19:20.379Z,10.80
2018-06-27T00:20:55.547Z,10.80
2018-06-27T00:22:31.227Z,9.80
2018-06-27T00:24:06.543Z,16.40
2018-06-27T00:25:41.893Z,11.20
2018-06-27T00:27:17.181Z,14.20
2018-06-27T00:28:52.528Z,13.60
2018-06-27T00:30:27.988Z,12.80
2018-06-27T00:32:03.631Z,10.00
2018-06-27T00:33:39.589Z,9.40
2018-06-27T00:35:14.765Z,10.60
2018-06-27T00:36:50.340Z,9.40
2018-06-27T00:38:27.652Z,12.00
2018-06-27T00:40:03.236Z,13.40
2018-06-27T00:41:40.214Z,15.00
2018-06-27T00:43:17.275Z,14.40
2018-06-27T00:44:52.332Z,12.40
2018-06-27T00:46:27.943Z,9.60
2018-06-27T00:48:03.851Z,10.80
2018-06-27T00:49:39.281Z,12.60
2018-06-27T00:51:14.528Z,9.00
2018-06-27T00:52:50.466Z,12.00
2018-06-27T00:54:26.058Z,9.00
2018-06-27T00:56:01.864Z,8.00
2018-06-27T00:57:36.969Z,9.60
2018-06-27T00:59:12.808Z,12.00
2018-06-27T01:00:51.282Z,13.00
2018-06-27T01:02:26.543Z,10.60
2018-06-27T01:04:02.171Z,13.00
2018-06-27T01:05:38.285Z,9.20
2018-06-27T01:07:14.220Z,11.60
2018-06-27T01:08:49.393Z,7.40
2018-06-27T01:10:24.662Z,7.00
2018-06-27T01:12:01.098Z,9.80
2018-06-27T01:13:36.385Z,9.00
2018-06-27T01:15:14.089Z,13.40
2018-06-27T01:16:49.186Z,9.80
2018-06-27T01:18:24.941Z,12.00
2018-06-27T01:20:00.540Z,3.80
2018-06-27T01:21:35.778Z,9.20
2018-06-27T01:23:12.841Z,11.20
2018-06-27T01:24:52.506Z,7.40
2018-06-27T01:26:29.191Z,12.00
2018-06-27T01:28:06.558Z,12.20
2018-06-27T01:29:42.622Z,9.00
2018-06-27T01:31:18.171Z,7.60
2018-06-27T01:32:57.265Z,13.00
2018-06-27T01:34:32.439Z,12.00
2018-06-27T01:36:09.254Z,10.00
2018-06-27T01:37:45.687Z,12.20
2018-06-27T01:39:21.458Z,7.40
2018-06-27T01:40:58.375Z,7.40
2018-06-27T01:42:35.259Z,12.60
2018-06-27T01:44:11.680Z,8.60
2018-06-27T01:45:48.439Z,6.00
2018-06-27T01:47:23.459Z,6.00
2018-06-27T01:48:59.120Z,11.20
2018-06-27T01:50:35.086Z,11.20
2018-06-27T01:52:10.681Z,11.20
2018-06-27T01:53:47.140Z,12.20
2018-06-27T01:55:23.242Z,8.40
2018-06-27T01:57:03.547Z,9.40
2018-06-27T01:58:39.507Z,10.60
2018-06-27T02:00:19.273Z,7.00
2018-06-27T02:01:56.335Z,6.20
2018-06-27T02:03:31.597Z,6.80
2018-06-27T02:05:09.869Z,10.00
2018-06-27T02:06:47.711Z,8.20
2018-06-27T02:08:23.606Z,4.80
2018-06-27T02:09:59.555Z,9.40
2018-06-27T02:11:35.203Z,9.80
2018-06-27T02:13:10.547Z,5.80
2018-06-27T02:14:48.282Z,6.80
2018-06-27T02:16:23.967Z,5.60
2018-06-27T02:18:00.403Z,5.60
2018-06-27T02:19:36.853Z,9.60
2018-06-27T02:21:12.253Z,7.00
2018-06-27T02:22:49.578Z,6.20
2018-06-27T02:24:28.748Z,9.40
2018-06-27T02:26:04.780Z,9.80
2018-06-27T02:27:40.908Z,9.00
2018-06-27T02:29:16.941Z,6.40
2018-06-27T02:30:53.594Z,8.20
2018-06-27T02:32:28.768Z,7.00
2018-06-27T02:34:04.958Z,9.00
2018-06-27T02:35:40.457Z,6.80
2018-06-27T02:37:16.676Z,6.40
2018-06-27T02:38:51.849Z,10.80
2018-06-27T02:40:27.034Z,12.20
2018-06-27T02:42:01.997Z,12.40
2018-06-27T02:43:37.241Z,12.00
2018-06-27T02:45:14.791Z,14.20
2018-06-27T02:46:50.274Z,12.80
2018-06-27T02:48:25.469Z,3.60
2018-06-27T02:50:00.463Z,10.00
2018-06-27T02:51:35.489Z,9.00
2018-06-27T02:53:11.838Z,6.60
2018-06-27T02:54:48.194Z,8.60
2018-06-27T02:56:24.274Z,8.20
2018-06-27T02:57:59.325Z,6.00
2018-06-27T02:59:34.689Z,4.80
2018-06-27T03:01:10.648Z,9.00
2018-06-27T03:02:48.336Z,9.80
2018-06-27T03:04:23.341Z,8.20
2018-06-27T03:05:59.346Z,11.20
2018-06-27T03:07:35.580Z,13.40
2018-06-27T03:09:12.359Z,15.40
2018-06-27T03:10:48.384Z,10.80
2018-06-27T03:12:23.829Z,10.40
2018-06-27T03:13:59.769Z,7.00
2018-06-27T03:15:35.218Z,13.40
2018-06-27T03:17:10.397Z,10.80
2018-06-27T03:18:55.988Z,6.20
2018-06-27T03:20:31.056Z,12.00
2018-06-27T03:22:07.061Z,9.60
2018-06-27T03:23:43.100Z,10.00
2018-06-27T03:25:22.096Z,11.00
2018-06-27T03:26:57.167Z,12.00
2018-06-27T03:28:33.535Z,12.40
2018-06-27T03:30:09.991Z,9.00
2018-06-27T03:31:46.606Z,9.40
2018-06-27T03:33:22.375Z,11.80
2018-06-27T03:34:57.351Z,8.20
2018-06-27T03:36:32.428Z,10.20
2018-06-27T03:38:09.288Z,8.40
2018-06-27T03:39:44.173Z,11.60
2018-06-27T03:41:22.512Z,9.80
2018-06-27T03:42:59.695Z,13.40
2018-06-27T03:44:36.895Z,9.80
2018-06-27T03:46:13.411Z,8.40
2018-06-27T03:47:49.121Z,8.60
2018-06-27T03:49:26.092Z,11.60
2018-06-27T03:51:01.120Z,7.40
2018-06-27T03:52:39.987Z,9.80
2018-06-27T03:54:17.143Z,9.00
2018-06-27T03:55:53.786Z,9.00
2018-06-27T03:57:28.604Z,9.00
2018-06-27T03:59:03.597Z,10.80
2018-06-27T04:00:39.028Z,8.20
2018-06-27T04:02:14.999Z,9.40
2018-06-27T04:03:51.645Z,7.20
2018-06-27T04:05:27.887Z,8.20
2018-06-27T04:07:04.357Z,10.00
2018-06-27T04:08:39.962Z,8.00
2018-06-27T04:10:15.107Z,9.00
2018-06-27T04:11:51.942Z,9.80
2018-06-27T04:13:27.010Z,7.80
2018-06-27T04:15:04.462Z,7.00
2018-06-27T04:16:44.714Z,9.60
2018-06-27T04:18:19.640Z,7.40
2018-06-27T04:19:55.863Z,9.80
2018-06-27T04:21:31.595Z,9.00
2018-06-27T04:23:07.923Z,12.20
2018-06-27T04:24:43.499Z,12.00
2018-06-27T04:26:19.770Z,9.60
2018-06-27T04:27:56.594Z,12.00
2018-06-27T04:29:33.112Z,11.80
2018-06-27T04:31:10.021Z,7.00
2018-06-27T04:32:46.600Z,7.40
2018-06-27T04:34:22.306Z,6.80
2018-06-27T04:35:59.196Z,9.80
2018-06-27T04:37:35.011Z,7.40
2018-06-27T04:39:12.501Z,6.40
2018-06-27T04:40:48.027Z,11.20
2018-06-27T04:42:23.663Z,11.20
2018-06-27T04:43:59.940Z,9.00
2018-06-27T04:45:35.161Z,12.20
2018-06-27T04:47:11.307Z,11.00
2018-06-27T04:48:50.319Z,5.80
2018-06-27T04:50:25.506Z,12.00
2018-06-27T04:52:01.217Z,7.40
2018-06-27T04:53:36.443Z,12.00
2018-06-27T04:55:12.179Z,9.00
2018-06-27T04:56:47.316Z,10.40
2018-06-27T04:58:24.556Z,13.00
2018-06-27T04:59:59.826Z,7.80
2018-06-27T05:01:36.250Z,11.20
2018-06-27T05:03:14.030Z,8.00
2018-06-27T05:04:49.490Z,12.20
2018-06-27T05:06:24.687Z,8.20
2018-06-27T05:07:59.597Z,8.60
2018-06-27T05:09:35.500Z,10.00
2018-06-27T05:11:10.957Z,11.00
2018-06-27T05:12:49.773Z,8.00
2018-06-27T05:14:25.695Z,9.00
2018-06-27T05:16:02.407Z,8.00
2018-06-27T05:17:37.284Z,9.40
2018-06-27T05:19:13.409Z,10.40
2018-06-27T05:20:50.031Z,10.00
2018-06-27T05:22:28.761Z,6.80
2018-06-27T05:24:06.111Z,6.80
2018-06-27T05:25:42.866Z,7.20
2018-06-27T05:27:17.955Z,6.40
2018-06-27T05:29:03.993Z,9.40
2018-06-27T05:30:40.054Z,7.00
2018-06-27T05:32:16.601Z,7.20
2018-06-27T05:33:54.365Z,7.80
2018-06-27T05:35:31.527Z,9.80
2018-06-27T05:37:09.251Z,8.60
2018-06-27T05:38:44.460Z,8.00
2018-06-27T05:40:19.832Z,7.60
2018-06-27T05:41:56.457Z,8.80
2018-06-27T05:43:31.493Z,9.20
2018-06-27T05:45:08.815Z,8.40
2018-06-27T05:46:45.113Z,10.20
2018-06-27T05:48:20.059Z,11.00
2018-06-27T05:49:56.684Z,8.20
2018-06-27T05:51:33.684Z,8.20
2018-06-27T05:53:11.212Z,6.00
2018-06-27T05:54:47.999Z,6.40
2018-06-27T05:56:23.497Z,8.00
2018-06-27T05:58:01.079Z,6.40
2018-06-27T05:59:37.033Z,9.00
2018-06-27T06:01:13.406Z,8.80
2018-06-27T06:02:50.753Z,8.60
2018-06-27T06:04:27.681Z,9.00
2018-06-27T06:06:02.846Z,7.00
2018-06-27T06:07:38.446Z,8.40
2018-06-27T06:09:16.037Z,8.20
2018-06-27T06:10:52.339Z,8.20
2018-06-27T06:12:28.152Z,8.40
2018-06-27T06:14:03.750Z,7.00
2018-06-27T06:15:39.160Z,9.20
2018-06-27T06:17:14.727Z,11.00
2018-06-27T06:18:50.789Z,9.80
2018-06-27T06:20:27.741Z,11.40
2018-06-27T06:22:03.801Z,11.80
2018-06-27T06:23:39.599Z,11.20
2018-06-27T06:25:15.547Z,11.20
2018-06-27T06:26:51.176Z,12.40
2018-06-27T06:28:26.528Z,10.20
2018-06-27T06:30:04.892Z,8.20
2018-06-27T06:31:40.882Z,9.80
2018-06-27T06:33:16.505Z,9.20
2018-06-27T06:34:52.074Z,8.80
2018-06-27T06:36:27.142Z,9.60
2018-06-27T06:38:03.089Z,10.00
2018-06-27T06:39:38.060Z,11.80
2018-06-27T06:41:13.683Z,11.00
2018-06-27T06:42:49.115Z,11.40
2018-06-27T06:44:24.740Z,11.60
2018-06-27T06:45:59.908Z,11.80
2018-06-27T06:47:34.986Z,10.80
2018-06-27T06:49:10.962Z,9.40
2018-06-27T06:50:47.922Z,10.60
2018-06-27T06:52:23.302Z,12.20
2018-06-27T06:53:58.382Z,11.60
2018-06-27T06:55:34.983Z,10.20
2018-06-27T06:57:10.515Z,10.80
2018-06-27T06:58:46.686Z,11.60
2018-06-27T07:00:22.625Z,10.80
2018-06-27T07:01:57.891Z,12.20
2018-06-27T07:03:33.304Z,13.60
2018-06-27T07:05:08.822Z,13.20
2018-06-27T07:06:44.411Z,12.40
2018-06-27T07:08:20.018Z,12.80
2018-06-27T07:09:57.304Z,11.00
2018-06-27T07:11:33.339Z,11.20
2018-06-27T07:13:09.845Z,14.00
2018-06-27T07:14:45.681Z,11.60
2018-06-27T07:16:21.585Z,12.20
2018-06-27T07:17:56.798Z,11.00
2018-06-27T07:19:33.018Z,12.20
2018-06-27T07:21:12.031Z,14.20
2018-06-27T07:22:48.893Z,12.00
2018-06-27T07:24:24.448Z,12.00
2018-06-27T07:26:00.162Z,8.20
2018-06-27T07:27:35.414Z,10.00
2018-06-27T07:29:10.864Z,10.00
2018-06-27T07:30:45.896Z,11.40
2018-06-27T07:32:21.147Z,11.00
2018-06-27T07:33:56.645Z,9.40
2018-06-27T07:35:33.294Z,9.80
2018-06-27T07:37:08.906Z,9.00
2018-06-27T07:38:44.856Z,10.60
2018-06-27T07:40:20.669Z,10.60
2018-06-27T07:41:55.858Z,10.20
2018-06-27T07:43:31.325Z,10.40
2018-06-27T07:45:07.829Z,11.00
2018-06-27T07:46:43.472Z,10.00
2018-06-27T07:48:19.038Z,10.80
2018-06-27T07:49:55.123Z,12.00
2018-06-27T07:51:30.861Z,10.60
2018-06-27T07:53:11.227Z,9.00
2018-06-27T07:54:48.625Z,8.00
2018-06-27T07:56:25.447Z,7.60
2018-06-27T07:58:01.543Z,12.00
2018-06-27T07:59:36.793Z,9.60
2018-06-27T08:01:12.788Z,8.40
2018-06-27T08:02:47.965Z,10.20
2018-06-27T08:04:24.012Z,8.80
2018-06-27T08:06:03.104Z,10.60
2018-06-27T08:07:38.651Z,8.00
2018-06-27T08:09:17.498Z,8.00
2018-06-27T08:10:53.529Z,10.40
2018-06-27T08:12:29.056Z,8.40
2018-06-27T08:14:05.475Z,8.00
2018-06-27T08:15:41.979Z,7.00
2018-06-27T08:17:19.513Z,6.80
2018-06-27T08:19:03.506Z,8.40
2018-06-27T08:20:39.742Z,7.80
2018-06-27T08:22:23.665Z,8.00
2018-06-27T08:24:01.530Z,8.00
2018-06-27T08:25:36.926Z,8.20
2018-06-27T08:27:12.635Z,6.00
2018-06-27T08:28:48.833Z,7.20
2018-06-27T08:30:25.432Z,6.80
2018-06-27T08:32:00.682Z,8.00
2018-06-27T08:33:37.581Z,8.00
2018-06-27T08:35:15.192Z,8.60
2018-06-27T08:36:50.789Z,8.00
2018-06-27T08:40:08.608Z,6.20
2018-06-27T08:41:44.692Z,5.80
2018-06-27T08:43:20.905Z,5.80
2018-06-27T08:44:55.939Z,7.00
2018-06-27T08:46:35.337Z,5.40
2018-06-27T08:48:12.478Z,6.40
2018-06-27T08:49:49.749Z,6.00
2018-06-27T08:51:24.767Z,6.00
2018-06-27T08:53:00.124Z,4.80
2018-06-27T08:54:39.670Z,5.20
2018-06-27T08:56:15.691Z,4.40
2018-06-27T08:57:53.172Z,6.00
2018-06-27T08:59:29.206Z,6.40
2018-06-27T09:01:06.232Z,5.20
2018-06-27T09:02:45.903Z,4.20
2018-06-27T09:04:21.631Z,5.00
2018-06-27T09:06:01.912Z,4.40
2018-06-27T09:07:38.636Z,4.00
2018-06-27T09:09:14.262Z,6.80
2018-06-27T09:10:50.402Z,6.60
2018-06-27T09:12:26.068Z,5.80
2018-06-27T09:14:02.197Z,5.60
2018-06-27T09:15:37.317Z,7.00
2018-06-27T09:17:12.788Z,5.00
2018-06-27T09:18:50.089Z,4.20
2018-06-27T09:20:27.396Z,3.00
2018-06-27T09:22:03.127Z,4.00
2018-06-27T09:23:39.859Z,6.00
2018-06-27T09:25:14.974Z,7.00
2018-06-27T09:26:51.911Z,7.60
2018-06-27T09:28:29.405Z,6.20
2018-06-27T09:30:06.847Z,7.00
2018-06-27T09:31:43.162Z,5.00
2018-06-27T09:33:18.690Z,6.00
2018-06-27T09:34:55.922Z,8.60
2018-06-27T09:36:34.008Z,7.80
2018-06-27T09:38:10.819Z,10.00
2018-06-27T09:39:46.076Z,9.40
2018-06-27T09:41:22.630Z,10.60
2018-06-27T09:43:01.725Z,8.60
2018-06-27T09:44:43.140Z,7.00
2018-06-27T09:46:18.070Z,7.00
2018-06-27T09:47:53.899Z,5.00
2018-06-27T09:49:29.222Z,8.60
2018-06-27T09:51:04.953Z,6.80
2018-06-27T09:52:42.322Z,7.40
2018-06-27T09:54:17.861Z,5.20
2018-06-27T09:55:53.773Z,6.00
2018-06-27T09:57:28.978Z,7.00
2018-06-27T09:59:04.435Z,6.40
2018-06-27T10:00:41.707Z,7.00
2018-06-27T10:02:16.700Z,7.00
2018-06-27T10:03:57.848Z,7.00
2018-06-27T10:05:33.966Z,4.60
2018-06-27T10:07:11.427Z,7.00
2018-06-27T10:08:46.336Z,6.00
2018-06-27T10:11:25.498Z,5.00
2018-06-27T10:13:02.096Z,5.80
2018-06-27T10:14:38.661Z,5.80
2018-06-27T10:16:14.685Z,6.80
2018-06-27T10:20:04.320Z,6.80
2018-06-27T10:21:41.181Z,6.40
2018-06-27T10:23:16.534Z,7.20
2018-06-27T10:25:00.673Z,7.20
2018-06-27T10:26:40.343Z,6.00
2018-06-27T10:28:25.105Z,3.40
2018-06-27T10:30:10.097Z,6.00
2018-06-27T10:31:49.909Z,4.00
2018-06-27T10:33:41.179Z,5.20
2018-06-27T10:35:22.088Z,6.00
2018-06-27T10:37:02.689Z,6.20
2018-06-27T10:38:39.522Z,4.00
2018-06-27T10:40:16.755Z,8.20
2018-06-27T10:41:53.488Z,5.00
2018-06-27T10:43:32.236Z,8.00
2018-06-27T10:45:18.033Z,6.00
2018-06-27T10:46:54.041Z,5.00
2018-06-27T10:48:30.708Z,6.00
2018-06-27T10:50:09.377Z,6.40
2018-06-27T10:51:48.271Z,5.40
2018-06-27T10:53:25.258Z,4.20
2018-06-27T10:55:01.012Z,4.00
2018-06-27T10:56:37.457Z,4.00
2018-06-27T10:58:16.929Z,5.00
2018-06-27T10:59:54.378Z,3.60
2018-06-27T11:01:30.525Z,4.00
2018-06-27T11:03:05.636Z,4.20
2018-06-27T11:04:40.823Z,3.80
2018-06-27T11:06:17.398Z,3.20
2018-06-27T11:07:54.019Z,4.20
2018-06-27T11:11:20.154Z,4.40
2018-06-27T11:12:56.621Z,3.60
2018-06-27T11:14:35.565Z,4.20
2018-06-27T11:16:11.954Z,4.20
2018-06-27T11:17:49.274Z,4.00
2018-06-27T11:19:28.577Z,3.80
2018-06-27T11:21:07.220Z,4.00
2018-06-27T11:22:44.633Z,4.00
2018-06-27T11:24:21.464Z,7.40
2018-06-27T11:26:00.573Z,5.20
2018-06-27T11:27:37.865Z,4.80
2018-06-27T11:29:14.209Z,7.00
2018-06-27T11:30:50.597Z,6.00
2018-06-27T11:32:26.302Z,5.00
2018-06-27T11:34:03.523Z,6.80
2018-06-27T11:35:40.226Z,6.60
2018-06-27T11:37:15.470Z,5.60
2018-06-27T11:38:51.535Z,8.40
2018-06-27T11:40:31.517Z,8.00
2018-06-27T11:42:08.288Z,7.00
2018-06-27T11:43:46.145Z,7.80
2018-06-27T11:45:23.670Z,8.00
2018-06-27T11:47:01.496Z,8.40
2018-06-27T11:48:38.063Z,7.20
2018-06-27T11:50:16.278Z,5.00
2018-06-27T11:51:52.728Z,5.60
2018-06-27T11:53:30.765Z,8.20
2018-06-27T11:55:14.133Z,7.80
2018-06-27T11:56:51.324Z,5.80
2018-06-27T11:58:30.132Z,5.80
2018-06-27T12:00:14.005Z,6.00
2018-06-27T12:01:55.151Z,6.00
2018-06-27T12:03:31.621Z,7.00
2018-06-27T12:05:09.676Z,7.20
2018-06-27T12:06:47.537Z,6.00
2018-06-27T12:08:24.787Z,7.00
2018-06-27T12:53:19.665Z,13.20
2018-06-27T12:56:54.307Z,9.60
2018-06-27T12:58:32.370Z,7.00
2018-06-27T13:00:14.256Z,17.40
2018-06-27T13:01:50.594Z,8.60
2018-06-27T13:03:27.769Z,5.00
2018-06-27T13:05:05.112Z,5.80
2018-06-27T13:06:43.485Z,3.20
2018-06-27T13:08:20.991Z,4.80
2018-06-27T13:09:57.888Z,7.00
2018-06-27T13:11:36.360Z,6.80
2018-06-27T13:13:15.319Z,4.80
2018-06-27T13:14:51.388Z,7.80
2018-06-27T13:16:28.734Z,6.00
2018-06-27T13:18:07.066Z,6.00
2018-06-27T14:00:59.009Z,3.40
2018-06-27T14:02:35.410Z,4.00
2018-06-27T14:04:11.949Z,4.20
2018-06-27T14:05:49.247Z,4.20
2018-06-27T14:07:26.208Z,4.00
2018-06-27T14:09:02.744Z,5.00
2018-06-27T14:10:38.576Z,3.40
2018-06-27T14:12:19.184Z,0.00
2018-06-27T14:13:55.065Z,4.40
2018-06-27T14:15:33.753Z,3.40
2018-06-27T14:17:10.317Z,4.00
2018-06-27T14:18:46.213Z,5.00
2018-06-27T14:20:23.603Z,4.60
2018-06-27T14:22:00.866Z,3.80
2018-06-27T14:23:35.955Z,4.60
2018-06-27T14:25:16.968Z,2.00
2018-06-27T14:26:54.242Z,4.80
2018-06-27T14:28:31.953Z,5.00
2018-06-27T14:30:19.701Z,2.40
2018-06-27T14:31:55.508Z,3.80
2018-06-27T14:33:34.561Z,4.00
2018-06-27T14:35:10.843Z,3.00
2018-06-27T14:36:46.522Z,4.00
2018-06-27T14:38:22.553Z,4.00
2018-06-27T14:39:59.134Z,4.80
2018-06-27T14:41:34.805Z,6.00
2018-06-27T14:43:10.275Z,3.00
2018-06-27T14:44:46.045Z,5.00
2018-06-27T14:46:22.506Z,5.60
2018-06-27T14:47:58.511Z,3.20
2018-06-27T14:49:33.685Z,3.60
2018-06-27T14:51:09.376Z,4.20
2018-06-27T14:52:44.542Z,3.20
2018-06-27T14:54:25.076Z,5.00
2018-06-27T14:56:01.303Z,5.00
2018-06-27T14:57:42.645Z,5.40
2018-06-27T14:59:18.414Z,4.80
2018-06-27T15:00:56.536Z,4.60
2018-06-27T15:02:38.749Z,5.40
2018-06-27T15:04:17.537Z,5.40
2018-06-27T15:05:56.068Z,4.40
2018-06-27T15:07:37.697Z,4.00
2018-06-27T15:09:14.423Z,5.20
2018-06-27T15:10:49.862Z,5.00
2018-06-27T15:12:28.291Z,4.80
2018-06-27T15:14:05.006Z,4.40
2018-06-27T15:15:45.232Z,5.00
2018-06-27T15:17:21.809Z,6.00
2018-06-27T15:19:00.040Z,8.00
2018-06-27T15:20:35.537Z,4.00
2018-06-27T15:22:13.458Z,5.00
2018-06-27T15:23:51.599Z,6.00
2018-06-27T15:25:27.925Z,6.00
2018-06-27T15:27:08.958Z,6.00
2018-06-27T15:28:45.319Z,5.00
2018-06-27T15:30:20.974Z,5.80
2018-06-27T15:31:57.593Z,4.40
2018-06-27T15:33:55.833Z,4.00
2018-06-27T15:35:32.549Z,5.40
2018-06-27T15:37:09.805Z,5.20
2018-06-27T15:38:49.739Z,6.00
2018-06-27T15:40:27.475Z,6.20
2018-06-27T15:42:06.078Z,5.00
2018-06-27T15:43:43.025Z,5.80
2018-06-27T15:45:23.391Z,5.60
2018-06-27T15:47:01.487Z,5.00
2018-06-27T15:48:41.402Z,4.60
2018-06-27T15:50:18.486Z,5.20
2018-06-27T15:51:57.951Z,4.60
2018-06-27T15:55:24.675Z,6.00
2018-06-27T15:57:01.315Z,6.00
2018-06-27T15:58:38.925Z,5.80
2018-06-27T16:00:17.877Z,4.00
2018-06-27T16:01:53.796Z,6.00
2018-06-27T16:03:32.615Z,6.00
2018-06-27T16:05:08.516Z,5.60
2018-06-27T16:06:45.461Z,6.00
2018-06-27T16:08:21.724Z,5.20
2018-06-27T16:09:59.896Z,5.60
2018-06-27T16:11:39.130Z,5.00
2018-06-27T16:13:15.523Z,6.80
2018-06-27T16:14:52.088Z,6.00
2018-06-27T16:16:31.719Z,7.20
2018-06-27T16:18:12.604Z,7.60
2018-06-27T16:19:48.809Z,7.40
2018-06-27T16:21:29.305Z,5.00
2018-06-27T16:23:07.274Z,6.20
2018-06-27T16:24:44.769Z,6.00
2018-06-27T16:26:22.371Z,9.00
2018-06-27T16:28:03.216Z,11.20
2018-06-27T16:29:39.728Z,9.80
2018-06-27T16:31:15.042Z,6.00
2018-06-27T16:32:50.360Z,8.40
2018-06-27T16:34:25.785Z,8.20
2018-06-27T16:36:03.195Z,6.80
2018-06-27T16:37:39.557Z,8.80
2018-06-27T16:39:15.710Z,6.00
2018-06-27T16:40:56.068Z,7.40
2018-06-27T16:42:32.093Z,7.00
2018-06-27T16:44:09.507Z,7.00
2018-06-27T16:45:45.037Z,7.00
2018-06-27T16:47:21.685Z,7.80
2018-06-27T16:48:58.492Z,9.80
2018-06-27T16:50:33.922Z,7.80
2018-06-27T16:52:12.550Z,12.00
2018-06-27T16:53:48.094Z,6.40
2018-06-27T16:55:25.347Z,5.60
2018-06-27T16:57:01.656Z,6.60
2018-06-27T16:58:37.952Z,5.00
2018-06-27T17:00:15.833Z,6.80
2018-06-27T17:01:52.845Z,6.00
2018-06-27T17:03:28.681Z,6.60
2018-06-27T17:05:06.370Z,5.00
2018-06-27T17:06:44.692Z,7.20
2018-06-27T17:08:22.018Z,7.40
2018-06-27T17:09:59.769Z,7.60
2018-06-27T17:11:37.689Z,7.00
2018-06-27T17:13:14.330Z,8.00
2018-06-27T17:14:52.227Z,7.40
2018-06-27T17:16:31.514Z,6.00
2018-06-27T17:18:13.821Z,6.00
2018-06-27T17:19:55.990Z,6.00
2018-06-27T17:21:33.334Z,6.00
2018-06-27T17:23:15.966Z,7.00
2018-06-27T17:24:51.877Z,8.40
2018-06-27T17:26:28.973Z,6.40
2018-06-27T17:28:08.973Z,11.20
2018-06-27T17:29:46.026Z,6.80
2018-06-27T17:31:25.147Z,6.00
2018-06-27T17:33:08.100Z,6.00
2018-06-27T17:34:50.564Z,6.20
2018-06-27T17:36:30.596Z,7.40
2018-06-27T17:38:12.530Z,7.00
2018-06-27T17:39:54.113Z,5.60
2018-06-27T17:41:35.721Z,7.40
2018-06-27T17:43:14.092Z,7.80
2018-06-27T17:44:51.804Z,7.00
2018-06-27T17:46:39.783Z,7.20
2018-06-27T17:48:20.106Z,7.00
2018-06-27T17:50:01.945Z,7.60
2018-06-27T17:53:43.716Z,7.80
2018-06-27T17:55:22.735Z,6.80
2018-06-27T17:57:09.536Z,7.00
2018-06-27T17:58:58.047Z,6.00
2018-06-27T18:00:34.952Z,5.80
2018-06-27T18:02:16.363Z,7.00
2018-06-27T18:04:00.527Z,5.00
2018-06-27T18:05:37.671Z,7.40
2018-06-27T18:07:18.592Z,7.40
2018-06-27T18:08:57.974Z,7.20
2018-06-27T18:10:38.845Z,8.00
2018-06-27T18:12:18.107Z,7.60
2018-06-27T18:14:01.653Z,7.20
2018-06-27T18:15:45.606Z,7.40
2018-06-27T18:17:29.540Z,5.40
2018-06-27T18:19:16.119Z,8.60
2018-06-27T18:20:59.390Z,5.80
2018-06-27T18:22:38.690Z,7.00
2018-06-27T18:24:21.144Z,8.20
2018-06-27T18:26:05.688Z,7.00
2018-06-27T18:27:42.759Z,6.40
2018-06-27T18:29:23.311Z,5.40
2018-06-27T18:30:59.701Z,7.00
2018-06-27T18:32:40.649Z,8.20
2018-06-27T18:34:20.250Z,8.60
2018-06-27T18:35:58.086Z,8.00
2018-06-27T18:37:34.784Z,5.80
2018-06-27T18:39:12.856Z,6.80
2018-06-27T18:40:51.359Z,6.80
2018-06-27T18:42:32.460Z,7.00
2018-06-27T18:44:11.989Z,7.00
2018-06-27T18:45:51.508Z,6.20
2018-06-27T18:47:31.230Z,7.00
2018-06-27T18:49:09.945Z,7.40
2018-06-27T18:50:46.748Z,7.40
2018-06-27T18:52:25.876Z,6.40
2018-06-27T18:54:04.124Z,6.80
2018-06-27T18:55:52.433Z,7.20
2018-06-27T18:57:30.094Z,8.40
2018-06-27T19:01:10.696Z,6.00
2018-06-27T19:02:55.101Z,9.20
2018-06-27T19:04:39.787Z,8.00
2018-06-27T19:06:33.047Z,6.80
2018-06-27T19:08:10.672Z,7.80
2018-06-27T19:09:53.282Z,6.20
2018-06-27T19:11:32.573Z,8.80
2018-06-27T19:15:14.813Z,8.40
2018-06-27T19:18:43.128Z,8.00
2018-06-27T19:20:30.425Z,8.20
2018-06-27T19:22:18.425Z,7.00
2018-06-27T19:25:14.354Z,7.00
2018-06-27T19:26:57.459Z,6.00
2018-06-27T19:28:38.413Z,7.40
2018-06-27T19:30:26.764Z,7.20
2018-06-27T19:32:05.547Z,7.20
2018-06-27T19:33:52.152Z,7.00
2018-06-27T19:35:35.405Z,9.20
2018-06-27T19:37:17.071Z,8.00
2018-06-27T19:38:57.524Z,7.20
2018-06-27T19:40:41.273Z,7.00
2018-06-27T19:42:26.144Z,8.00
2018-06-27T19:44:04.386Z,8.20
2018-06-27T19:45:43.376Z,7.80
2018-06-27T19:47:24.491Z,7.40
2018-06-27T19:49:07.904Z,6.20
2018-06-27T19:50:55.462Z,7.00
2018-06-27T19:53:04.958Z,8.20
2018-06-27T19:55:45.406Z,7.00
2018-06-27T19:57:24.675Z,8.00
2018-06-27T19:59:05.336Z,8.60
2018-06-27T20:00:42.469Z,9.00
2018-06-27T20:02:19.428Z,8.00
2018-06-27T20:03:58.754Z,9.00
2018-06-27T20:07:33.921Z,9.00
2018-06-27T20:09:11.172Z,8.60
2018-06-27T20:10:51.409Z,10.00
2018-06-27T20:12:30.354Z,8.00
2018-06-27T20:14:19.553Z,8.00
2018-06-27T20:15:58.925Z,7.00
2018-06-27T20:17:57.886Z,9.00
2018-06-27T20:19:38.690Z,9.00
2018-06-27T20:21:17.914Z,9.00
2018-06-27T20:22:55.782Z,7.00
2018-06-27T20:24:33.751Z,9.20
2018-06-27T20:26:21.288Z,10.40
2018-06-27T20:27:58.563Z,9.00
2018-06-27T20:29:35.865Z,7.00
2018-06-27T20:31:19.753Z,9.00
2018-06-27T20:32:58.255Z,8.00
2018-06-27T20:34:36.740Z,9.20
2018-06-27T20:36:15.997Z,3.80
2018-06-27T20:38:00.766Z,7.80
2018-06-27T20:39:50.568Z,7.40
2018-06-27T20:41:33.387Z,9.00
2018-06-27T20:43:12.034Z,7.00
2018-06-27T20:44:51.272Z,7.00
2018-06-27T20:46:28.396Z,10.00
2018-06-27T20:48:06.211Z,9.60
2018-06-27T20:49:48.521Z,10.60
2018-06-27T20:51:31.272Z,11.20
2018-06-27T20:53:08.221Z,10.00
2018-06-27T20:54:45.395Z,10.60
2018-06-27T20:56:26.556Z,9.40
2018-06-27T20:58:05.531Z,9.00
2018-06-27T20:59:47.449Z,9.60
2018-06-27T21:01:31.574Z,7.00
2018-06-27T21:03:08.885Z,9.60
2018-06-27T21:04:50.364Z,7.80
2018-06-27T21:06:27.531Z,7.40
2018-06-27T21:08:09.812Z,9.20
2018-06-27T21:09:51.604Z,9.80
2018-06-27T21:11:29.874Z,6.60
2018-06-27T21:13:06.813Z,7.80
2018-06-27T21:14:51.634Z,9.00
2018-06-27T21:16:33.660Z,6.60
2018-06-27T21:18:10.595Z,8.80
2018-06-27T21:19:52.459Z,10.00
2018-06-27T21:21:30.539Z,9.40
2018-06-27T21:23:09.460Z,9.80
2018-06-27T21:24:45.852Z,8.20
2018-06-27T21:26:31.415Z,6.20
2018-06-27T21:28:16.212Z,10.00
2018-06-27T21:29:54.169Z,9.80
2018-06-27T21:31:31.496Z,8.40
2018-06-27T21:33:09.446Z,7.00
2018-06-27T21:34:47.393Z,3.20
2018-06-27T21:36:27.955Z,8.00
2018-06-27T21:38:22.092Z,6.00
2018-06-27T21:40:04.931Z,6.00
2018-06-27T21:41:41.817Z,10.00
2018-06-27T21:43:18.580Z,10.20
2018-06-27T21:45:04.276Z,10.60
2018-06-27T21:46:48.448Z,8.20
2018-06-27T21:50:11.585Z,7.80
2018-06-27T21:51:57.597Z,9.60
2018-06-27T21:53:41.984Z,9.00
2018-06-27T21:55:21.356Z,7.80
2018-06-27T21:57:03.292Z,7.80
2018-06-27T21:58:39.575Z,9.00
2018-06-27T22:00:21.222Z,9.00
2018-06-27T22:02:02.676Z,8.00
2018-06-27T22:03:41.707Z,8.40
2018-06-27T22:05:23.572Z,10.20
2018-06-27T22:07:03.281Z,9.80
2018-06-27T22:08:45.654Z,6.00
2018-06-27T22:10:22.710Z,7.00
2018-06-27T22:12:00.161Z,6.20
2018-06-27T22:13:37.045Z,9.40
2018-06-27T22:15:15.436Z,9.00
2018-06-27T22:16:54.581Z,8.60
2018-06-27T22:18:35.384Z,10.40
2018-06-27T22:20:11.586Z,8.60
2018-06-27T22:21:47.691Z,8.80
2018-06-27T22:23:23.408Z,6.40
2018-06-27T22:24:59.196Z,7.00
2018-06-27T22:26:35.094Z,6.80
2018-06-27T22:28:13.016Z,8.60
2018-06-27T22:29:49.368Z,8.40
2018-06-27T22:31:24.974Z,7.20
2018-06-27T22:33:01.369Z,6.00
2018-06-27T22:34:37.704Z,8.60
2018-06-27T22:36:12.980Z,6.40
2018-06-27T22:37:48.504Z,6.20
2018-06-27T22:40:52.656Z,8.20
2018-06-27T22:42:28.412Z,9.20
2018-06-27T22:44:03.759Z,9.20
2018-06-27T22:45:41.010Z,8.80
2018-06-27T22:47:19.606Z,6.00
2018-06-27T22:48:57.589Z,12.00
2018-06-27T22:50:33.408Z,6.00
2018-06-27T22:52:11.449Z,10.40
2018-06-27T22:59:17.408Z,12.00
2018-06-27T23:00:52.691Z,6.60
2018-06-27T23:02:33.282Z,6.20
2018-06-27T23:04:08.698Z,3.20
2018-06-27T23:05:45.573Z,8.00
2018-06-27T23:07:27.125Z,9.60
2018-06-27T23:09:03.391Z,7.60
2018-06-27T23:10:40.177Z,8.00
2018-06-27T23:12:18.868Z,8.00
2018-06-27T23:13:56.454Z,9.60
2018-06-27T23:15:33.095Z,8.40
2018-06-27T23:17:10.207Z,9.00
2018-06-27T23:18:48.285Z,6.60
2018-06-27T23:20:24.655Z,7.00
2018-06-27T23:22:02.166Z,8.00
2018-06-27T23:23:39.743Z,7.00
2018-06-27T23:25:16.337Z,8.80
2018-06-27T23:26:55.699Z,9.20